Terminal Aerodrome Forecast
Issued by NWS

Home | Current Version | Previous Version | Text Only | Print | Product List | Glossary On
Versions: 1 2 3 4 5 6 7 8 9 10 11 12 13 14 15 16 17 18 19 20 21 22
000
FTUS43 KABR 261200 AAB
TAFPIR
TAF AMD
KPIR 261246Z 2613/2712 20006KT P6SM SCT050 BKN100
      TEMPO 2613/2614 3SM +TSRA BKN050CB
     FM261400 30011KT P6SM SKC
     FM261600 31015G24KT P6SM SKC
     FM261900 32023G33KT P6SM SKC
     FM270200 32009KT P6SM SKC=

USA.gov is the U.S. government's official web portal to all federal, state and local government web resources and services.